Time,TemperatureF,DewpointF,PressureIn,WindDirection,WindDirectionDegrees,WindSpeedMPH,WindSpeedGustMPH,Humidity,HourlyPrecipIn,Conditions,Clouds,dailyrainin,SoftwareType,DateUTC
2013-03-12 00:00:00,45.7,44.0,30.34,NNE,18,0.0,0.0,95,0.00,,,0.00,weatherlink.com 1.10,2013-03-12 07:00:00,
2013-03-12 00:15:00,45.5,45.0,30.33,NNE,18,0.0,0.0,96,0.00,,,0.00,weatherlink.com 1.10,2013-03-12 07:15:00,
2013-03-12 00:30:00,45.1,44.0,30.32,NNE,18,0.0,0.0,96,0.00,,,0.00,weatherlink.com 1.10,2013-03-12 07:30:00,
2013-03-12 00:45:00,44.7,44.0,30.32,NNE,18,0.0,0.0,96,0.00,,,0.00,weatherlink.com 1.10,2013-03-12 07:45:00,
2013-03-12 01:01:00,44.4,43.0,30.32,NNE,18,0.0,0.0,96,0.00,,,0.00,weatherlink.com 1.10,2013-03-12 08:01:00,
2013-03-12 01:16:00,44.3,43.0,30.32,NNE,18,0.0,0.0,96,0.00,,,0.00,weatherlink.com 1.10,2013-03-12 08:16:00,
2013-03-12 01:31:00,43.6,43.0,30.32,NNE,18,0.0,0.0,96,0.00,,,0.00,weatherlink.com 1.10,2013-03-12 08:31:00,
2013-03-12 01:46:00,43.4,43.0,30.31,NNE,18,0.0,0.0,97,0.00,,,0.00,weatherlink.com 1.10,2013-03-12 08:46:00,
2013-03-12 02:01:00,42.7,42.0,30.31,NNE,18,0.0,0.0,97,0.00,,,0.00,weatherlink.com 1.10,2013-03-12 09:01:00,
2013-03-12 03:31:00,42.1,41.0,30.31,NNE,18,0.0,0.0,97,0.00,,,0.00,weatherlink.com 1.10,2013-03-12 10:31:00,
2013-03-12 04:01:00,41.5,41.0,30.30,NNE,18,0.0,0.0,97,0.00,,,0.00,weatherlink.com 1.10,2013-03-12 11:01:00,
2013-03-12 04:16:00,41.4,41.0,30.30,NNE,18,0.0,0.0,97,0.00,,,0.00,weatherlink.com 1.10,2013-03-12 11:16:00,
2013-03-12 04:31:00,41.7,41.0,30.29,NNE,18,0.0,0.0,98,0.00,,,0.00,weatherlink.com 1.10,2013-03-12 11:31:00,
2013-03-12 04:46:00,42.2,42.0,30.29,NNE,18,0.0,0.0,98,0.00,,,0.00,weatherlink.com 1.10,2013-03-12 11:46:00,
2013-03-12 05:01:00,42.8,42.0,30.30,NNE,18,0.0,0.0,98,0.00,,,0.00,weatherlink.com 1.10,2013-03-12 12:01:00,
2013-03-12 05:16:00,43.5,43.0,30.30,North,11,0.0,1.0,98,0.00,,,0.00,weatherlink.com 1.10,2013-03-12 12:16:00,
2013-03-12 05:31:00,43.7,43.0,30.29,North,11,0.0,0.0,98,0.00,,,0.00,weatherlink.com 1.10,2013-03-12 12:31:00,
2013-03-12 05:46:00,44.1,44.0,30.30,North,11,0.0,0.0,98,0.00,,,0.00,weatherlink.com 1.10,2013-03-12 12:46:00,
2013-03-12 06:01:00,44.2,44.0,30.30,North,11,0.0,0.0,98,0.00,,,0.00,weatherlink.com 1.10,2013-03-12 13:01:00,
2013-03-12 06:16:00,43.7,43.0,30.30,North,10,0.0,0.0,98,0.00,,,0.00,weatherlink.com 1.10,2013-03-12 13:16:00,
2013-03-12 06:31:00,43.6,43.0,30.30,North,11,0.0,0.0,98,0.00,,,0.00,weatherlink.com 1.10,2013-03-12 13:31:00,
2013-03-12 06:46:00,43.8,43.0,30.29,SE,146,0.0,1.0,98,0.00,,,0.00,weatherlink.com 1.10,2013-03-12 13:46:00,
2013-03-12 07:01:00,43.9,43.0,30.30,SE,146,0.0,0.0,98,0.00,,,0.00,weatherlink.com 1.10,2013-03-12 14:01:00,
2013-03-12 07:16:00,44.0,44.0,30.30,SE,146,0.0,1.0,98,0.00,,,0.00,weatherlink.com 1.10,2013-03-12 14:16:00,
2013-03-12 07:31:00,44.0,44.0,30.30,SE,146,0.0,0.0,98,0.00,,,0.00,weatherlink.com 1.10,2013-03-12 14:31:00,
2013-03-12 07:46:00,44.1,44.0,30.30,SE,146,0.0,0.0,98,0.00,,,0.00,weatherlink.com 1.10,2013-03-12 14:46:00,
2013-03-12 08:01:00,44.1,44.0,30.30,West,270,0.0,1.0,98,0.00,,,0.00,weatherlink.com 1.10,2013-03-12 15:01:00,
2013-03-12 08:16:00,44.2,44.0,30.30,West,270,0.0,0.0,98,0.00,,,0.00,weatherlink.com 1.10,2013-03-12 15:16:00,
2013-03-12 08:31:00,44.5,44.0,30.30,WSW,255,0.0,0.0,98,0.00,,,0.00,weatherlink.com 1.10,2013-03-12 15:31:00,
2013-03-12 08:46:00,44.9,44.0,30.31,WSW,255,0.0,0.0,98,0.00,,,0.00,weatherlink.com 1.10,2013-03-12 15:46:00,
2013-03-12 09:02:00,45.3,45.0,30.31,WNW,302,0.0,1.0,98,0.00,,,0.00,weatherlink.com 1.10,2013-03-12 16:02:00,
2013-03-12 09:16:00,45.9,45.0,30.31,WNW,302,0.0,1.0,98,0.00,,,0.00,weatherlink.com 1.10,2013-03-12 16:16:00,
2013-03-12 09:31:00,46.5,46.0,30.32,WNW,302,0.0,1.0,98,0.00,,,0.00,weatherlink.com 1.10,2013-03-12 16:31:00,
2013-03-12 10:01:00,48.3,48.0,30.32,West,273,0.0,1.0,98,0.00,,,0.00,weatherlink.com 1.10,2013-03-12 17:01:00,
2013-03-12 10:16:00,49.3,49.0,30.32,ESE,111,1.0,3.0,98,0.00,,,0.00,weatherlink.com 1.10,2013-03-12 17:16:00,
2013-03-12 10:31:00,50.2,49.0,30.32,SSE,156,0.0,4.0,95,0.00,,,0.00,weatherlink.com 1.10,2013-03-12 17:31:00,
2013-03-12 10:46:00,51.3,49.0,30.32,SE,139,0.0,3.0,93,0.00,,,0.00,weatherlink.com 1.10,2013-03-12 17:46:00,
2013-03-12 11:02:00,53.4,50.0,30.32,WSW,249,2.0,3.0,89,0.00,,,0.00,weatherlink.com 1.10,2013-03-12 18:02:00,
2013-03-12 11:17:00,54.0,51.0,30.32,SE,132,0.0,3.0,88,0.00,,,0.00,weatherlink.com 1.10,2013-03-12 18:17:00,
2013-03-12 11:32:00,54.9,51.0,30.32,WSW,254,1.0,4.0,85,0.00,,,0.00,weatherlink.com 1.10,2013-03-12 18:32:00,
2013-03-12 12:02:00,56.8,51.0,30.32,SW,233,3.0,4.0,81,0.00,,,0.00,weatherlink.com 1.10,2013-03-12 19:02:00,
2013-03-12 12:17:00,57.6,51.0,30.32,SE,139,3.0,5.0,79,0.00,,,0.00,weatherlink.com 1.10,2013-03-12 19:17:00,
2013-03-12 12:32:00,57.7,50.0,30.31,SE,137,1.0,3.0,76,0.00,,,0.00,weatherlink.com 1.10,2013-03-12 19:32:00,
2013-03-12 12:47:00,58.1,51.0,30.31,ENE,78,0.0,3.0,77,0.00,,,0.00,weatherlink.com 1.10,2013-03-12 19:47:00,
2013-03-12 13:17:00,58.3,51.0,30.30,SW,228,0.0,3.0,78,0.00,,,0.00,weatherlink.com 1.10,2013-03-12 20:17:00,
2013-03-12 13:47:00,57.5,51.0,30.30,South,189,1.0,2.0,79,0.00,,,0.00,weatherlink.com 1.10,2013-03-12 20:47:00,
2013-03-12 14:02:00,57.7,52.0,30.30,SW,228,0.0,2.0,80,0.00,,,0.00,weatherlink.com 1.10,2013-03-12 21:02:00,
2013-03-12 14:17:00,59.0,52.0,30.30,SSE,155,1.0,2.0,77,0.00,,,0.00,weatherlink.com 1.10,2013-03-12 21:17:00,
2013-03-12 14:32:00,59.0,51.0,30.29,WSW,256,2.0,5.0,75,0.00,,,0.00,weatherlink.com 1.10,2013-03-12 21:32:00,
2013-03-12 14:47:00,59.0,51.0,30.27,West,276,1.0,3.0,75,0.00,,,0.00,weatherlink.com 1.10,2013-03-12 21:47:00,
2013-03-12 15:02:00,59.3,51.0,30.28,South,172,1.0,3.0,75,0.00,,,0.00,weatherlink.com 1.10,2013-03-12 22:02:00,
2013-03-12 15:17:00,60.6,51.0,30.28,WSW,248,2.0,2.0,71,0.00,,,0.00,weatherlink.com 1.10,2013-03-12 22:17:00,
2013-03-12 15:32:00,60.4,51.0,30.28,SW,233,1.0,6.0,71,0.00,,,0.00,weatherlink.com 1.10,2013-03-12 22:32:00,
2013-03-12 15:47:00,61.4,51.0,30.28,West,278,0.0,4.0,69,0.00,,,0.00,weatherlink.com 1.10,2013-03-12 22:47:00,
2013-03-12 16:02:00,61.2,52.0,30.27,SE,142,1.0,3.0,71,0.00,,,0.00,weatherlink.com 1.10,2013-03-12 23:02:00,
2013-03-12 16:19:00,60.9,51.0,30.27,WSW,240,1.0,3.0,69,0.00,,,0.00,weatherlink.com 1.10,2013-03-12 23:19:00,
2013-03-12 16:32:00,61.6,51.0,30.27,ESE,117,0.0,2.0,68,0.00,,,0.00,weatherlink.com 1.10,2013-03-12 23:32:00,
2013-03-12 16:47:00,61.8,51.0,30.27,SSE,167,0.0,2.0,67,0.00,,,0.00,weatherlink.com 1.10,2013-03-12 23:47:00,
2013-03-12 17:02:00,61.1,50.0,30.26,SSW,207,0.0,4.0,67,0.00,,,0.00,weatherlink.com 1.10,2013-03-13 00:02:00,
2013-03-12 17:17:00,62.2,51.0,30.26,SSE,167,0.0,3.0,67,0.00,,,0.00,weatherlink.com 1.10,2013-03-13 00:17:00,
2013-03-12 17:32:00,61.3,50.0,30.26,WNW,285,0.0,4.0,66,0.00,,,0.00,weatherlink.com 1.10,2013-03-13 00:32:00,
2013-03-12 17:47:00,60.6,50.0,30.25,West,262,0.0,2.0,68,0.00,,,0.00,weatherlink.com 1.10,2013-03-13 00:47:00,
2013-03-12 18:02:00,59.8,50.0,30.25,WSW,257,0.0,1.0,71,0.00,,,0.00,weatherlink.com 1.10,2013-03-13 01:02:00,
2013-03-12 18:17:00,59.3,50.0,30.25,WSW,256,0.0,1.0,72,0.00,,,0.00,weatherlink.com 1.10,2013-03-13 01:17:00,
2013-03-12 18:32:00,58.6,50.0,30.26,WSW,256,0.0,1.0,74,0.00,,,0.00,weatherlink.com 1.10,2013-03-13 01:32:00,
2013-03-12 18:47:00,57.9,50.0,30.25,WSW,256,0.0,0.0,76,0.00,,,0.00,weatherlink.com 1.10,2013-03-13 01:47:00,
2013-03-12 19:02:00,57.1,50.0,30.26,WSW,257,0.0,0.0,78,0.00,,,0.00,weatherlink.com 1.10,2013-03-13 02:02:00,
2013-03-12 19:17:00,56.2,50.0,30.27,WSW,256,0.0,0.0,80,0.00,,,0.00,weatherlink.com 1.10,2013-03-13 02:17:00,
2013-03-12 19:32:00,56.1,49.0,30.27,NNW,347,2.0,2.0,78,0.00,,,0.00,weatherlink.com 1.10,2013-03-13 02:32:00,
2013-03-12 19:47:00,56.1,48.0,30.27,NNW,345,1.0,5.0,73,0.00,,,0.00,weatherlink.com 1.10,2013-03-13 02:47:00,
2013-03-12 20:02:00,55.5,47.0,30.27,West,276,1.0,4.0,74,0.00,,,0.00,weatherlink.com 1.10,2013-03-13 03:02:00,
2013-03-12 20:17:00,54.8,47.0,30.28,West,280,0.0,3.0,75,0.00,,,0.00,weatherlink.com 1.10,2013-03-13 03:17:00,
2013-03-12 20:32:00,54.1,47.0,30.29,NW,319,1.0,1.0,77,0.00,,,0.00,weatherlink.com 1.10,2013-03-13 03:32:00,
2013-03-12 20:47:00,53.6,47.0,30.29,NW,323,0.0,2.0,78,0.00,,,0.00,weatherlink.com 1.10,2013-03-13 03:47:00,
2013-03-12 21:02:00,53.1,47.0,30.29,WNW,290,0.0,1.0,79,0.00,,,0.00,weatherlink.com 1.10,2013-03-13 04:02:00,
2013-03-12 21:17:00,52.5,47.0,30.30,WNW,291,0.0,0.0,80,0.00,,,0.00,weatherlink.com 1.10,2013-03-13 04:17:00,
2013-03-12 21:32:00,52.3,46.0,30.29,WNW,293,0.0,0.0,79,0.00,,,0.00,weatherlink.com 1.10,2013-03-13 04:32:00,
2013-03-12 21:47:00,51.6,46.0,30.29,WNW,292,0.0,0.0,81,0.00,,,0.00,weatherlink.com 1.10,2013-03-13 04:47:00,
2013-03-12 22:02:00,51.2,46.0,30.29,WNW,291,0.0,0.0,83,0.00,,,0.00,weatherlink.com 1.10,2013-03-13 05:02:00,
2013-03-12 22:17:00,50.8,47.0,30.30,WNW,292,0.0,0.0,85,0.00,,,0.00,weatherlink.com 1.10,2013-03-13 05:17:00,
2013-03-12 22:33:00,50.7,46.0,30.30,NW,320,0.0,1.0,84,0.00,,,0.00,weatherlink.com 1.10,2013-03-13 05:33:00,
2013-03-12 22:48:00,50.5,46.0,30.31,NW,320,0.0,0.0,84,0.00,,,0.00,weatherlink.com 1.10,2013-03-13 05:48:00,
2013-03-12 23:03:00,50.1,46.0,30.30,NW,321,0.0,0.0,85,0.00,,,0.00,weatherlink.com 1.10,2013-03-13 06:03:00,
2013-03-12 23:18:00,49.4,45.0,30.30,NW,320,0.0,0.0,86,0.00,,,0.00,weatherlink.com 1.10,2013-03-13 06:18:00,
2013-03-12 23:33:00,49.4,46.0,30.31,NW,320,0.0,0.0,87,0.00,,,0.00,weatherlink.com 1.10,2013-03-13 06:33:00,
2013-03-12 23:48:00,49.2,46.0,30.30,NW,321,0.0,0.0,88,0.00,,,0.00,weatherlink.com 1.10,2013-03-13 06:48:00,